createdAt,value
2022-11-26T00:02:17.404Z,8.04
2022-11-26T00:04:45.101Z,7.90
2022-11-26T00:07:13.110Z,7.78
2022-11-26T00:09:40.382Z,7.69
2022-11-26T00:12:33.077Z,7.58
2022-11-26T00:15:06.189Z,7.57
2022-11-26T00:17:32.798Z,7.53
2022-11-26T00:19:59.387Z,7.31
2022-11-26T00:22:30.332Z,7.18
2022-11-26T00:24:57.657Z,7.13
2022-11-26T00:27:27.505Z,7.24
2022-11-26T00:29:55.314Z,7.08
2022-11-26T00:32:24.919Z,7.27
2022-11-26T00:34:51.786Z,7.37
2022-11-26T00:37:34.465Z,7.28
2022-11-26T00:40:02.342Z,7.33
2022-11-26T00:42:28.947Z,7.36
2022-11-26T00:44:55.586Z,7.39
2022-11-26T00:47:22.234Z,7.52
2022-11-26T00:49:48.876Z,7.48
2022-11-26T00:52:30.637Z,7.52
2022-11-26T00:54:57.362Z,7.42
2022-11-26T00:57:24.009Z,7.51
2022-11-26T00:59:50.645Z,7.52
2022-11-26T01:04:48.639Z,7.63
2022-11-26T01:07:15.305Z,7.60
2022-11-26T01:09:46.364Z,7.54
2022-11-26T01:12:14.654Z,7.61
2022-11-26T01:14:41.325Z,7.55
2022-11-26T01:17:12.132Z,7.56
2022-11-26T01:19:38.820Z,7.65
2022-11-26T01:22:05.492Z,7.65
2022-11-26T01:24:32.107Z,7.58
2022-11-26T01:26:58.740Z,7.53
2022-11-26T01:29:25.324Z,7.58
2022-11-26T01:31:52.059Z,7.43
2022-11-26T01:34:18.730Z,7.32
2022-11-26T01:36:45.350Z,7.35
2022-11-26T01:39:23.212Z,7.30
2022-11-26T01:42:20.596Z,7.37
2022-11-26T01:44:47.332Z,7.39
2022-11-26T01:47:25.828Z,7.47
2022-11-26T01:50:34.290Z,7.53
2022-11-26T01:53:03.539Z,7.48
2022-11-26T01:55:36.840Z,7.62
2022-11-26T01:58:07.465Z,7.59
2022-11-26T02:00:34.145Z,7.50
2022-11-26T02:03:02.016Z,7.37
2022-11-26T02:05:33.525Z,7.27
2022-11-26T02:08:01.349Z,7.42
2022-11-26T02:10:28.382Z,7.50
2022-11-26T02:12:55.159Z,7.58
2022-11-26T02:15:25.216Z,7.51
2022-11-26T02:17:57.946Z,7.52
2022-11-26T02:20:58.599Z,7.45
2022-11-26T02:23:52.273Z,7.44
2022-11-26T02:26:52.976Z,7.28
2022-11-26T02:29:28.750Z,7.44
2022-11-26T02:32:14.027Z,7.40
2022-11-26T02:34:52.477Z,7.64
2022-11-26T02:37:25.542Z,7.72
2022-11-26T02:39:52.369Z,7.72
2022-11-26T02:42:25.048Z,7.55
2022-11-26T02:44:53.054Z,7.59
2022-11-26T02:47:21.314Z,7.62
2022-11-26T02:49:50.239Z,7.55
2022-11-26T02:52:18.975Z,7.41
2022-11-26T02:54:47.205Z,7.38
2022-11-26T02:57:16.186Z,7.38
2022-11-26T02:59:43.226Z,7.33
2022-11-26T03:02:14.852Z,7.34
2022-11-26T03:04:47.167Z,7.19
2022-11-26T03:07:15.067Z,7.33
2022-11-26T03:09:53.643Z,7.36
2022-11-26T03:12:20.940Z,7.39
2022-11-26T03:14:47.777Z,7.47
2022-11-26T03:17:15.086Z,7.45
2022-11-26T03:19:42.042Z,7.42
2022-11-26T03:22:09.475Z,7.51
2022-11-26T03:24:37.021Z,7.47
2022-11-26T03:27:04.252Z,7.33
2022-11-26T03:29:30.912Z,7.38
2022-11-26T03:34:29.228Z,7.39
2022-11-26T03:36:55.974Z,7.36
2022-11-26T03:39:22.692Z,7.19
2022-11-26T03:44:26.521Z,7.12
2022-11-26T03:46:53.119Z,7.01
2022-11-26T03:49:19.824Z,6.97
2022-11-26T03:51:46.526Z,7.09
2022-11-26T03:54:13.222Z,7.29
2022-11-26T03:56:39.889Z,7.24
2022-11-26T03:59:06.510Z,7.25
2022-11-26T04:01:33.284Z,7.18
2022-11-26T04:03:59.931Z,7.07
2022-11-26T04:06:26.698Z,7.18
2022-11-26T04:08:53.637Z,7.19
2022-11-26T04:11:20.358Z,7.07
2022-11-26T04:13:47.090Z,7.10
2022-11-26T04:16:13.891Z,7.04
2022-11-26T04:21:11.747Z,7.03
2022-11-26T04:23:38.432Z,6.99
2022-11-26T04:26:05.961Z,6.84
2022-11-26T04:28:32.761Z,6.84
2022-11-26T04:30:59.896Z,6.99
2022-11-26T04:33:29.307Z,6.86
2022-11-26T04:35:56.145Z,6.89
2022-11-26T04:38:25.770Z,6.67
2022-11-26T04:40:52.792Z,6.38
2022-11-26T04:43:19.444Z,6.37
2022-11-26T04:45:46.146Z,6.36
2022-11-26T04:48:12.746Z,6.31
2022-11-26T04:50:39.387Z,6.28
2022-11-26T04:53:06.908Z,6.35
2022-11-26T04:55:33.514Z,6.41
2022-11-26T04:58:00.146Z,6.46
2022-11-26T05:00:27.090Z,6.47
2022-11-26T05:02:53.780Z,6.54
2022-11-26T05:05:20.399Z,6.58
2022-11-26T05:07:47.178Z,6.32
2022-11-26T05:10:13.966Z,6.37
2022-11-26T05:12:40.617Z,6.23
2022-11-26T05:15:07.719Z,6.52
2022-11-26T05:17:34.404Z,6.38
2022-11-26T05:20:01.154Z,6.41
2022-11-26T05:22:27.860Z,6.20
2022-11-26T05:24:54.492Z,6.13
2022-11-26T05:29:54.345Z,5.97
2022-11-26T05:32:21.078Z,6.34
2022-11-26T05:34:47.804Z,6.17
2022-11-26T05:37:14.511Z,6.35
2022-11-26T05:39:41.151Z,6.56
2022-11-26T05:42:09.323Z,6.44
2022-11-26T05:44:37.432Z,6.32
2022-11-26T05:47:04.457Z,6.24
2022-11-26T05:49:31.044Z,6.40
2022-11-26T05:51:57.744Z,6.64
2022-11-26T05:54:24.399Z,6.47
2022-11-26T05:56:54.239Z,6.45
2022-11-26T05:59:25.900Z,6.74
2022-11-26T06:01:52.636Z,6.78
2022-11-26T06:04:19.315Z,6.89
2022-11-26T06:06:45.959Z,6.95
2022-11-26T06:09:12.707Z,6.94
2022-11-26T06:11:39.437Z,6.73
2022-11-26T06:14:06.095Z,6.72
2022-11-26T06:16:32.771Z,6.51
2022-11-26T06:18:59.428Z,6.36
2022-11-26T06:21:25.997Z,6.37
2022-11-26T06:23:58.853Z,6.23
2022-11-26T06:26:25.848Z,6.34
2022-11-26T06:28:52.522Z,6.52
2022-11-26T06:33:54.574Z,6.20
2022-11-26T06:36:21.762Z,6.19
2022-11-26T06:38:48.445Z,6.06
2022-11-26T06:41:15.122Z,6.10
2022-11-26T06:43:41.832Z,6.04
2022-11-26T06:46:10.480Z,6.00
2022-11-26T06:48:38.515Z,6.00
2022-11-26T06:51:07.466Z,6.00
2022-11-26T06:53:34.531Z,6.03
2022-11-26T06:56:02.772Z,6.35
2022-11-26T06:58:29.631Z,6.26
2022-11-26T07:00:57.214Z,6.36
2022-11-26T07:03:28.085Z,6.45
2022-11-26T07:05:58.689Z,6.48
2022-11-26T07:08:25.770Z,6.33
2022-11-26T07:10:52.383Z,6.54
2022-11-26T07:13:19.025Z,6.62
2022-11-26T07:15:45.857Z,6.59
2022-11-26T07:18:12.485Z,6.55
2022-11-26T07:20:39.136Z,6.46
2022-11-26T07:23:05.777Z,6.53
2022-11-26T07:25:32.485Z,6.62
2022-11-26T07:27:59.146Z,6.56
2022-11-26T07:30:25.813Z,6.71
2022-11-26T07:32:52.553Z,6.82
2022-11-26T07:35:19.273Z,6.78
2022-11-26T07:37:45.967Z,6.64
2022-11-26T07:40:13.147Z,6.84
2022-11-26T07:42:39.781Z,6.87
2022-11-26T07:45:06.833Z,6.91
2022-11-26T07:47:33.505Z,6.97
2022-11-26T07:50:01.623Z,6.83
2022-11-26T07:52:28.318Z,6.93
2022-11-26T07:54:54.931Z,6.94
2022-11-26T07:57:22.785Z,6.85
2022-11-26T07:59:49.462Z,6.96
2022-11-26T08:02:17.713Z,7.01
2022-11-26T08:04:44.469Z,7.06
2022-11-26T08:07:12.031Z,6.94
2022-11-26T08:09:41.366Z,6.96
2022-11-26T08:12:08.162Z,6.93
2022-11-26T08:14:34.912Z,7.02
2022-11-26T08:17:01.537Z,7.10
2022-11-26T08:19:28.207Z,7.07
2022-11-26T08:21:54.862Z,6.98
2022-11-26T08:24:23.901Z,7.10
2022-11-26T08:26:50.644Z,7.06
2022-11-26T08:29:17.509Z,7.06
2022-11-26T08:31:46.305Z,6.99
2022-11-26T08:36:46.887Z,7.09
2022-11-26T08:39:17.666Z,7.22
2022-11-26T08:44:18.877Z,7.26
2022-11-26T08:46:45.496Z,7.27
2022-11-26T08:49:13.438Z,7.38
2022-11-26T08:51:40.193Z,7.45
2022-11-26T08:56:40.428Z,7.32
2022-11-26T08:59:07.116Z,7.31
2022-11-26T09:01:34.175Z,7.40
2022-11-26T09:04:02.523Z,7.59
2022-11-26T09:06:31.249Z,7.44
2022-11-26T09:09:15.049Z,7.43
2022-11-26T09:11:47.131Z,7.53
2022-11-26T09:14:15.889Z,7.50
2022-11-26T09:16:42.611Z,7.57
2022-11-26T09:19:11.517Z,7.96
2022-11-26T09:21:38.253Z,8.32
2022-11-26T09:24:05.219Z,8.55
2022-11-26T09:26:33.178Z,8.91
2022-11-26T09:29:00.243Z,9.02
2022-11-26T09:31:27.401Z,9.41
2022-11-26T09:33:56.868Z,9.55
2022-11-26T09:36:23.797Z,9.54
2022-11-26T09:38:54.494Z,9.47
2022-11-26T09:41:42.698Z,9.25
2022-11-26T09:44:11.961Z,9.00
2022-11-26T09:47:10.335Z,9.02
2022-11-26T09:49:42.957Z,8.89
2022-11-26T09:52:11.735Z,8.83
2022-11-26T09:54:40.290Z,8.76
2022-11-26T09:57:22.960Z,8.65
2022-11-26T09:59:51.633Z,8.73
2022-11-26T10:02:18.384Z,8.71
2022-11-26T10:04:46.223Z,8.72
2022-11-26T10:07:44.453Z,8.80
2022-11-26T10:13:18.022Z,8.74
2022-11-26T10:15:50.621Z,8.95
2022-11-26T10:18:33.893Z,8.98
2022-11-26T10:21:18.260Z,8.91
2022-11-26T10:26:42.000Z,8.94
2022-11-26T10:29:38.246Z,8.82
2022-11-26T10:32:15.915Z,8.67
2022-11-26T10:34:50.756Z,8.69
2022-11-26T10:37:18.189Z,8.70
2022-11-26T10:39:45.205Z,8.61
2022-11-26T10:42:23.588Z,8.54
2022-11-26T10:44:54.597Z,8.58
2022-11-26T10:47:31.056Z,8.59
2022-11-26T10:52:42.190Z,8.69
2022-11-26T10:55:41.710Z,8.71
2022-11-26T10:58:17.399Z,8.70
2022-11-26T11:00:49.665Z,8.67
2022-11-26T11:03:38.279Z,8.72
2022-11-26T11:06:20.254Z,8.63
2022-11-26T11:08:48.522Z,8.67
2022-11-26T11:11:21.070Z,8.72
2022-11-26T11:13:48.886Z,8.71
2022-11-26T11:16:40.209Z,8.57
2022-11-26T11:21:56.013Z,8.53
2022-11-26T11:24:27.953Z,8.78
2022-11-26T11:27:00.398Z,8.83
2022-11-26T11:29:30.077Z,9.03
2022-11-26T11:31:57.945Z,9.14
2022-11-26T11:34:39.998Z,9.08
2022-11-26T11:37:18.829Z,9.11
2022-11-26T11:39:45.597Z,9.24
2022-11-26T11:42:31.204Z,9.25
2022-11-26T11:45:00.396Z,9.30
2022-11-26T11:47:43.807Z,9.23
2022-11-26T11:50:31.332Z,9.26
2022-11-26T11:53:16.706Z,9.27
2022-11-26T11:56:02.408Z,9.52
2022-11-26T11:58:45.849Z,9.55
2022-11-26T12:01:15.524Z,9.60
2022-11-26T12:03:49.814Z,9.73
2022-11-26T12:06:28.336Z,9.71
2022-11-26T12:09:09.708Z,9.73
2022-11-26T12:11:48.008Z,9.59
2022-11-26T12:14:34.916Z,9.61
2022-11-26T12:17:14.803Z,9.68
2022-11-26T12:19:54.386Z,9.82
2022-11-26T12:25:06.991Z,9.98
2022-11-26T12:27:37.643Z,9.95
2022-11-26T12:30:15.010Z,9.95
2022-11-26T12:32:53.535Z,10.01
2022-11-26T12:35:30.225Z,10.32
2022-11-26T12:38:02.090Z,10.55
2022-11-26T12:40:50.307Z,10.79
2022-11-26T12:43:32.946Z,10.87
2022-11-26T12:46:04.930Z,10.84
2022-11-26T12:48:47.769Z,10.60
2022-11-26T12:51:21.725Z,10.34
2022-11-26T12:53:57.398Z,10.38
2022-11-26T12:56:33.482Z,10.24
2022-11-26T12:59:29.691Z,10.13
2022-11-26T13:01:57.548Z,10.06
2022-11-26T13:04:43.781Z,10.13
2022-11-26T13:07:37.597Z,10.02
2022-11-26T13:10:42.493Z,9.89
2022-11-26T13:13:50.414Z,9.92
2022-11-26T13:16:23.772Z,9.78
2022-11-26T13:19:06.554Z,9.54
2022-11-26T13:21:44.107Z,9.39
2022-11-26T13:24:27.451Z,9.44
2022-11-26T13:27:12.600Z,9.56
2022-11-26T13:30:03.921Z,9.70
2022-11-26T13:32:40.358Z,9.71
2022-11-26T13:35:16.014Z,9.62
2022-11-26T13:37:59.698Z,9.54
2022-11-26T13:40:41.487Z,9.56
2022-11-26T13:46:27.505Z,9.57
2022-11-26T13:49:07.404Z,9.61
2022-11-26T13:51:42.457Z,9.66
2022-11-26T13:54:37.392Z,9.50
2022-11-26T13:57:13.455Z,9.49
2022-11-26T14:00:07.649Z,9.50
2022-11-26T14:02:34.658Z,9.47
2022-11-26T14:05:04.640Z,9.55
2022-11-26T14:07:31.370Z,9.44
2022-11-26T14:13:04.964Z,9.36
2022-11-26T14:15:43.338Z,9.25
2022-11-26T14:18:14.194Z,9.38
2022-11-26T14:21:01.635Z,9.27
2022-11-26T14:23:54.184Z,9.05
2022-11-26T14:26:23.655Z,9.01
2022-11-26T14:28:52.748Z,9.10
2022-11-26T14:31:23.682Z,9.05
2022-11-26T14:33:54.342Z,9.05
2022-11-26T14:36:23.447Z,9.02
2022-11-26T14:39:14.654Z,8.99
2022-11-26T14:41:41.347Z,8.98
2022-11-26T14:44:11.848Z,8.93
2022-11-26T14:46:40.058Z,8.84
2022-11-26T14:49:16.689Z,8.72
2022-11-26T14:51:46.150Z,8.67
2022-11-26T14:54:19.195Z,8.68
2022-11-26T14:56:46.829Z,8.74
2022-11-26T14:59:18.101Z,8.59
2022-11-26T15:01:46.508Z,8.55
2022-11-26T15:04:28.416Z,8.42
2022-11-26T15:06:55.257Z,8.38
2022-11-26T15:09:25.696Z,8.24
2022-11-26T15:12:04.546Z,8.32
2022-11-26T15:14:43.074Z,8.27
2022-11-26T15:17:17.981Z,8.19
2022-11-26T15:19:45.731Z,8.24
2022-11-26T15:22:20.299Z,8.18
2022-11-26T15:24:53.728Z,8.09
2022-11-26T15:27:30.662Z,7.97
2022-11-26T15:29:57.554Z,7.98
2022-11-26T15:32:29.387Z,8.02
2022-11-26T15:34:59.154Z,7.86
2022-11-26T15:37:26.111Z,7.95
2022-11-26T15:40:45.738Z,7.96
2022-11-26T15:43:21.500Z,7.74
2022-11-26T15:45:49.430Z,7.92
2022-11-26T15:48:50.429Z,7.95
2022-11-26T15:51:30.829Z,7.92
2022-11-26T15:53:59.014Z,7.81
2022-11-26T15:56:30.268Z,7.88
2022-11-26T15:59:03.288Z,7.52
2022-11-26T16:01:32.955Z,7.47
2022-11-26T16:04:04.636Z,7.52
2022-11-26T16:06:40.030Z,7.81
2022-11-26T16:09:10.732Z,7.57
2022-11-26T16:11:44.500Z,7.48
2022-11-26T16:14:31.248Z,7.35
2022-11-26T16:17:18.766Z,7.33
2022-11-26T16:19:54.520Z,7.24
2022-11-26T16:25:05.951Z,7.02
2022-11-26T16:27:33.741Z,6.83
2022-11-26T16:30:06.650Z,6.82
2022-11-26T16:32:33.227Z,6.74
2022-11-26T16:35:12.293Z,6.77
2022-11-26T16:37:46.412Z,6.51
2022-11-26T16:40:17.227Z,6.33
2022-11-26T16:42:43.813Z,6.92
2022-11-26T16:45:12.098Z,6.82
2022-11-26T16:47:45.027Z,6.85
2022-11-26T16:50:23.262Z,6.73
2022-11-26T16:52:50.089Z,6.49
2022-11-26T16:55:19.286Z,6.41
2022-11-26T16:57:49.753Z,6.52
2022-11-26T17:00:22.487Z,6.49
2022-11-26T17:02:50.115Z,6.31
2022-11-26T17:05:17.253Z,6.23
2022-11-26T17:07:56.226Z,5.92
2022-11-26T17:10:25.829Z,6.03
2022-11-26T17:12:52.635Z,5.73
2022-11-26T17:15:19.291Z,5.87
2022-11-26T17:17:46.467Z,5.90
2022-11-26T17:20:16.096Z,5.86
2022-11-26T17:22:43.457Z,5.86
2022-11-26T17:25:10.363Z,5.87
2022-11-26T17:27:38.052Z,5.80
2022-11-26T17:30:05.766Z,6.12
2022-11-26T17:32:32.646Z,5.87
2022-11-26T17:34:59.325Z,6.04
2022-11-26T17:37:30.442Z,5.83
2022-11-26T17:39:57.864Z,5.73
2022-11-26T17:42:25.260Z,5.79
2022-11-26T17:44:53.686Z,5.90
2022-11-26T17:47:25.994Z,5.81
2022-11-26T17:49:53.819Z,5.61
2022-11-26T17:52:21.374Z,5.58
2022-11-26T17:54:48.072Z,5.17
2022-11-26T17:57:16.637Z,5.25
2022-11-26T17:59:43.427Z,5.14
2022-11-26T18:02:11.155Z,5.12
2022-11-26T18:07:18.399Z,5.25
2022-11-26T18:09:46.513Z,5.19
2022-11-26T18:12:24.372Z,5.26
2022-11-26T18:14:53.758Z,5.12
2022-11-26T18:17:20.940Z,5.12
2022-11-26T18:19:47.735Z,5.20
2022-11-26T18:22:16.831Z,5.13
2022-11-26T18:24:56.121Z,5.32
2022-11-26T18:27:26.668Z,5.17
2022-11-26T18:29:53.478Z,5.37
2022-11-26T18:32:20.397Z,5.16
2022-11-26T18:34:49.375Z,6.51
2022-11-26T18:37:17.298Z,6.55
2022-11-26T18:39:44.306Z,5.81
2022-11-26T18:44:58.542Z,5.27
2022-11-26T18:47:25.288Z,5.18
2022-11-26T18:49:51.888Z,5.11
2022-11-26T18:52:18.561Z,4.94
2022-11-26T18:54:45.340Z,4.87
2022-11-26T18:57:11.966Z,4.84
2022-11-26T18:59:38.795Z,4.74
2022-11-26T19:02:05.724Z,4.71
2022-11-26T19:04:32.390Z,4.93
2022-11-26T19:09:30.564Z,4.85
2022-11-26T19:11:58.384Z,4.79
2022-11-26T19:14:25.070Z,4.65
2022-11-26T19:16:52.163Z,4.69
2022-11-26T19:19:19.424Z,4.87
2022-11-26T19:21:46.136Z,4.82
2022-11-26T19:24:13.460Z,4.76
2022-11-26T19:26:43.073Z,5.15
2022-11-26T19:29:12.201Z,5.06
2022-11-26T19:31:40.072Z,4.86
2022-11-26T19:34:12.434Z,4.92
2022-11-26T19:36:39.131Z,4.99
2022-11-26T19:39:07.277Z,4.97
2022-11-26T19:41:34.078Z,4.87
2022-11-26T19:44:01.438Z,5.19
2022-11-26T19:46:28.608Z,4.97
2022-11-26T19:48:56.012Z,4.75
2022-11-26T19:51:25.342Z,4.80
2022-11-26T19:53:53.978Z,4.93
2022-11-26T19:56:28.995Z,5.04
2022-11-26T19:59:00.779Z,5.11
2022-11-26T20:04:08.519Z,5.14
2022-11-26T20:06:36.326Z,4.97
2022-11-26T20:09:05.274Z,5.14
2022-11-26T20:11:32.605Z,5.14
2022-11-26T20:13:59.634Z,5.18
2022-11-26T20:16:29.225Z,5.17
2022-11-26T20:18:57.111Z,5.14
2022-11-26T20:21:27.452Z,5.21
2022-11-26T20:23:57.589Z,4.82
2022-11-26T20:26:28.005Z,4.73
2022-11-26T20:28:55.270Z,4.79
2022-11-26T20:31:24.250Z,4.84
2022-11-26T20:33:54.844Z,4.86
2022-11-26T20:36:23.329Z,4.94
2022-11-26T20:38:54.964Z,4.94
2022-11-26T20:41:22.859Z,5.01
2022-11-26T20:43:56.556Z,4.99
2022-11-26T20:46:24.020Z,4.71
2022-11-26T20:48:50.729Z,4.54
2022-11-26T20:51:19.426Z,4.43
2022-11-26T20:53:46.417Z,4.56
2022-11-26T20:56:14.500Z,4.64
2022-11-26T20:58:41.675Z,4.64
2022-11-26T21:01:20.730Z,4.77
2022-11-26T21:03:48.351Z,4.77
2022-11-26T21:06:17.194Z,4.89
2022-11-26T21:08:43.984Z,4.87
2022-11-26T21:11:11.531Z,4.87
2022-11-26T21:13:39.205Z,4.69
2022-11-26T21:16:07.939Z,4.46
2022-11-26T21:18:34.679Z,4.25
2022-11-26T21:21:07.715Z,4.39
2022-11-26T21:23:34.414Z,4.45
2022-11-26T21:26:06.098Z,4.20
2022-11-26T21:28:33.578Z,4.43
2022-11-26T21:31:14.187Z,4.31
2022-11-26T21:33:40.827Z,4.29
2022-11-26T21:36:10.047Z,4.39
2022-11-26T21:38:37.344Z,4.25
2022-11-26T21:41:06.228Z,4.19
2022-11-26T21:43:32.914Z,4.10
2022-11-26T21:46:05.071Z,3.99
2022-11-26T21:48:32.330Z,4.08
2022-11-26T21:50:59.197Z,4.12
2022-11-26T21:53:25.821Z,4.09
2022-11-26T21:55:53.271Z,4.34
2022-11-26T21:58:20.030Z,4.00
2022-11-26T22:00:46.673Z,3.75
2022-11-26T22:03:13.331Z,3.50
2022-11-26T22:05:41.909Z,3.57
2022-11-26T22:08:08.685Z,3.48
2022-11-26T22:10:36.289Z,3.53
2022-11-26T22:13:03.026Z,3.59
2022-11-26T22:15:29.744Z,3.87
2022-11-26T22:17:56.929Z,3.86
2022-11-26T22:20:23.558Z,3.66
2022-11-26T22:22:50.267Z,3.70
2022-11-26T22:25:17.133Z,3.92
2022-11-26T22:27:43.772Z,3.78
2022-11-26T22:30:10.709Z,3.88
2022-11-26T22:32:37.366Z,3.87
2022-11-26T22:35:04.212Z,3.74
2022-11-26T22:37:30.853Z,3.60
2022-11-26T22:39:57.491Z,3.63
2022-11-26T22:42:24.122Z,3.65
2022-11-26T22:44:50.836Z,3.59
2022-11-26T22:47:17.489Z,3.57
2022-11-26T22:49:44.177Z,3.67
2022-11-26T22:52:10.799Z,3.56
2022-11-26T22:54:37.440Z,3.41
2022-11-26T22:57:04.272Z,3.34
2022-11-26T22:59:30.957Z,3.37
2022-11-26T23:01:57.645Z,3.37
2022-11-26T23:04:24.291Z,3.43
2022-11-26T23:06:50.989Z,3.45
2022-11-26T23:09:17.583Z,3.46
2022-11-26T23:11:44.579Z,3.38
2022-11-26T23:14:12.243Z,3.28
2022-11-26T23:16:40.702Z,3.36
2022-11-26T23:19:07.573Z,3.21
2022-11-26T23:21:40.224Z,3.09
2022-11-26T23:24:07.698Z,3.08
2022-11-26T23:26:36.537Z,3.25
2022-11-26T23:29:05.121Z,3.06
2022-11-26T23:34:06.854Z,3.04
2022-11-26T23:36:34.645Z,3.03
2022-11-26T23:39:02.795Z,3.16
2022-11-26T23:41:29.646Z,3.06
2022-11-26T23:43:56.619Z,3.05
2022-11-26T23:46:26.076Z,3.14
2022-11-26T23:48:53.513Z,3.20
2022-11-26T23:51:23.191Z,3.07
2022-11-26T23:53:50.922Z,3.22
2022-11-26T23:56:29.003Z,3.20
2022-11-26T23:58:58.108Z,3.05
